CDT,Max TemperatureF,Mean TemperatureF,Min TemperatureF,Max Dew PointF,MeanDew PointF,Min DewpointF,Max Humidity, Mean Humidity, Min Humidity, Max Sea Level PressureIn, Mean Sea Level PressureIn, Min Sea Level PressureIn, Max VisibilityMiles, Mean VisibilityMiles, Min VisibilityMiles, Max Wind SpeedMPH, Mean Wind SpeedMPH, Max Gust SpeedMPH,PrecipitationIn, CloudCover, Events, WindDirDegrees
2013-8-1,87,72,57,66,61,52,100,69,31,30.09,30.02,29.91,10,9,0,12,3,18,0.00,0,Fog,239
2013-8-2,82,73,64,66,63,55,100,76,53,30.02,29.94,29.90,10,10,9,16,3,24,0.00,2,,9
2013-8-3,78,68,59,61,57,52,100,68,41,30.19,30.12,30.03,10,10,10,12,6,15,0.00,1,,27
2013-8-4,80,66,53,59,56,52,100,66,42,30.21,30.14,30.06,10,10,9,14,5,20,0.00,1,,124
2013-8-5,84,73,62,72,66,59,94,78,55,30.05,29.92,29.81,10,10,9,14,6,23,0.00,3,,211
2013-8-6,89,76,64,72,68,63,100,78,49,29.90,29.84,29.78,10,9,1,13,3,18,0.00,,,207
2013-8-7,78,72,66,70,65,61,100,77,54,30.02,29.91,29.81,10,10,2,16,6,22,0.30,,Rain,353
2013-8-8,80,68,57,64,60,55,94,75,47,30.04,30.01,29.97,10,10,7,8,3,12,0.00,,,41
2013-8-9,80,70,60,66,62,50,100,73,36,30.14,30.06,30.01,10,10,7,16,4,20,0.00,,,342
2013-8-10,82,68,55,64,58,54,100,71,39,30.22,30.16,30.09,10,9,0,9,1,16,0.00,,Fog,207
2013-8-11,86,75,64,64,62,59,88,62,45,30.13,30.07,29.99,10,10,10,14,6,21,0.00,,,215
2013-8-12,82,72,60,68,62,54,100,71,39,30.07,30.02,29.99,10,9,3,16,8,24,0.00,,,354
2013-8-13,77,66,55,59,56,52,100,74,41,30.19,30.12,30.06,10,10,8,14,4,14,0.00,1,,33
2013-8-14,75,62,50,55,51,46,100,66,36,30.24,30.19,30.13,10,10,10,9,1,,0.00,2,,137
2013-8-15,71,63,55,59,54,52,94,72,50,30.17,30.14,30.11,10,10,10,15,3,21,0.00,4,,183
2013-8-16,77,62,48,57,53,48,100,71,41,30.21,30.18,30.14,10,10,9,9,2,17,0.00,1,,118
2013-8-17,80,65,50,59,54,50,100,69,34,30.24,30.19,30.13,10,10,5,10,2,17,0.00,1,,128
2013-8-18,80,66,51,59,56,52,100,71,42,30.19,30.14,30.08,10,10,8,12,2,20,0.00,1,,170
2013-8-19,84,70,57,64,61,55,100,73,45,30.10,30.05,29.99,10,10,3,15,4,23,0.09,2,,174
2013-8-20,89,78,66,68,65,61,83,62,43,30.02,29.98,29.93,10,10,10,18,9,28,0.00,2,,184
2013-8-21,93,83,73,68,67,64,83,60,41,30.01,29.99,29.96,10,10,10,18,10,23,0.00,0,,207
2013-8-22,82,74,66,70,68,66,100,75,58,30.10,30.06,29.99,10,10,6,12,6,17,0.00,0,,195
2013-8-23,87,74,62,72,69,63,100,80,58,30.13,30.09,30.04,10,8,0,14,4,17,0.00,2,Fog,128
2013-8-24,91,80,69,72,69,66,94,71,46,30.15,30.10,30.05,10,10,10,17,9,26,0.00,0,,158
2013-8-25,95,82,69,70,67,64,88,61,38,30.17,30.12,30.06,10,10,10,18,9,24,0.00,0,,186
2013-8-26,96,86,75,72,69,66,83,59,37,30.12,30.05,29.97,10,10,9,16,10,22,0.00,0,,206
2013-8-27,98,88,78,70,69,68,74,56,37,29.98,29.93,29.87,10,10,10,21,12,32,0.00,0,,222
2013-8-28,96,84,73,68,66,64,78,55,34,30.01,29.97,29.93,10,10,9,12,6,21,0.00,0,,251
2013-8-29,95,80,66,73,69,64,94,69,44,30.05,29.99,29.92,10,10,10,14,3,22,0.00,1,,165
2013-8-30,102,86,69,77,70,64,94,65,29,29.93,29.86,29.78,10,10,7,15,5,18,0.00,1,,258
2013-8-31,91,80,69,72,68,64,94,71,41,29.86,29.82,29.77,10,10,8,9,5,14,0.00,0,,352